Terminal Aerodrome Forecast
Issued by NWS Cleveland, OH

Home | Current Version | Previous Version | Graphics & Text | Print | Product List | Glossary Off
Versions: 1 2 3 4 5 6 7 8 9 10 11 12 13 14 15 16 17 18 19 20 21

000
FTUS41 KCLE 221700
TAFMFD
TAF
KMFD 221722Z 2218/2318 30006KT P6SM OVC025
      TEMPO 2218/2221 SCT025 OVC035
     FM222100 32006KT P6SM BKN035
     FM230000 VRB03KT P6SM SKC=

USA.gov is the U.S. government's official web portal to all federal, state and local government web resources and services.